sensor_id;sensor_type;location;lat;lon;timestamp;temperature;humidity
2955;DHT22;1487;51.470;6.938;2024-03-02T00:01:16;8.30;99.90
2955;DHT22;1487;51.470;6.938;2024-03-02T00:03:44;8.40;99.90
2955;DHT22;1487;51.470;6.938;2024-03-02T00:06:11;8.40;99.90
2955;DHT22;1487;51.470;6.938;2024-03-02T00:08:39;8.40;99.90
2955;DHT22;1487;51.470;6.938;2024-03-02T00:11:05;8.40;99.90
2955;DHT22;1487;51.470;6.938;2024-03-02T00:13:32;8.40;99.90
2955;DHT22;1487;51.470;6.938;2024-03-02T00:16:00;8.50;99.90
2955;DHT22;1487;51.470;6.938;2024-03-02T00:18:33;8.50;99.90
2955;DHT22;1487;51.470;6.938;2024-03-02T00:21:01;8.50;99.90
2955;DHT22;1487;51.470;6.938;2024-03-02T00:23:30;8.50;99.90
2955;DHT22;1487;51.470;6.938;2024-03-02T00:25:58;8.50;99.90
2955;DHT22;1487;51.470;6.938;2024-03-02T00:28:26;8.50;99.90
2955;DHT22;1487;51.470;6.938;2024-03-02T00:30:58;8.60;99.90
2955;DHT22;1487;51.470;6.938;2024-03-02T00:33:27;8.60;99.90
2955;DHT22;1487;51.470;6.938;2024-03-02T00:36:01;8.60;99.90
2955;DHT22;1487;51.470;6.938;2024-03-02T00:38:29;8.60;99.90
2955;DHT22;1487;51.470;6.938;2024-03-02T00:40:58;8.60;99.90
2955;DHT22;1487;51.470;6.938;2024-03-02T00:43:45;8.60;99.90
2955;DHT22;1487;51.470;6.938;2024-03-02T00:46:13;8.70;99.90
2955;DHT22;1487;51.470;6.938;2024-03-02T00:48:56;8.70;99.90
2955;DHT22;1487;51.470;6.938;2024-03-02T00:51:25;8.80;99.90
2955;DHT22;1487;51.470;6.938;2024-03-02T00:53:54;8.90;99.90
2955;DHT22;1487;51.470;6.938;2024-03-02T00:56:23;8.90;99.90
2955;DHT22;1487;51.470;6.938;2024-03-02T00:58:50;8.90;99.90
2955;DHT22;1487;51.470;6.938;2024-03-02T01:01:17;8.90;99.90
2955;DHT22;1487;51.470;6.938;2024-03-02T01:03:45;9.00;99.90
2955;DHT22;1487;51.470;6.938;2024-03-02T01:06:14;9.10;99.90
2955;DHT22;1487;51.470;6.938;2024-03-02T01:08:42;9.10;99.90
2955;DHT22;1487;51.470;6.938;2024-03-02T01:11:09;9.10;99.90
2955;DHT22;1487;51.470;6.938;2024-03-02T01:13:36;9.10;99.90
2955;DHT22;1487;51.470;6.938;2024-03-02T01:16:04;9.10;99.90
2955;DHT22;1487;51.470;6.938;2024-03-02T01:18:38;9.20;99.90
2955;DHT22;1487;51.470;6.938;2024-03-02T01:21:07;9.20;99.90
2955;DHT22;1487;51.470;6.938;2024-03-02T01:23:34;9.20;99.90
2955;DHT22;1487;51.470;6.938;2024-03-02T01:26:04;9.30;99.90
2955;DHT22;1487;51.470;6.938;2024-03-02T01:28:31;9.30;99.90
2955;DHT22;1487;51.470;6.938;2024-03-02T01:30:58;9.30;99.90
2955;DHT22;1487;51.470;6.938;2024-03-02T01:33:25;9.30;99.90
2955;DHT22;1487;51.470;6.938;2024-03-02T01:35:51;9.30;99.90
2955;DHT22;1487;51.470;6.938;2024-03-02T01:38:18;9.30;99.90
2955;DHT22;1487;51.470;6.938;2024-03-02T01:40:45;9.30;99.90
2955;DHT22;1487;51.470;6.938;2024-03-02T01:43:14;9.20;99.90
2955;DHT22;1487;51.470;6.938;2024-03-02T01:45:41;9.20;99.90
2955;DHT22;1487;51.470;6.938;2024-03-02T01:48:07;9.20;99.90
2955;DHT22;1487;51.470;6.938;2024-03-02T01:50:35;9.20;99.90
2955;DHT22;1487;51.470;6.938;2024-03-02T01:53:02;9.10;99.90
2955;DHT22;1487;51.470;6.938;2024-03-02T01:55:29;9.10;99.90
2955;DHT22;1487;51.470;6.938;2024-03-02T01:57:56;9.10;99.90
2955;DHT22;1487;51.470;6.938;2024-03-02T02:00:25;9.00;99.90
2955;DHT22;1487;51.470;6.938;2024-03-02T02:02:52;9.00;99.90
2955;DHT22;1487;51.470;6.938;2024-03-02T02:05:19;9.00;99.90
2955;DHT22;1487;51.470;6.938;2024-03-02T02:07:46;9.00;99.90
2955;DHT22;1487;51.470;6.938;2024-03-02T02:10:14;8.90;99.90
2955;DHT22;1487;51.470;6.938;2024-03-02T02:12:41;8.90;99.90
2955;DHT22;1487;51.470;6.938;2024-03-02T02:15:23;8.90;99.90
2955;DHT22;1487;51.470;6.938;2024-03-02T02:17:51;8.90;99.90
2955;DHT22;1487;51.470;6.938;2024-03-02T02:20:18;8.90;99.90
2955;DHT22;1487;51.470;6.938;2024-03-02T02:23:08;8.90;99.90
2955;DHT22;1487;51.470;6.938;2024-03-02T02:25:35;9.00;99.90
2955;DHT22;1487;51.470;6.938;2024-03-02T02:28:03;9.00;99.90
2955;DHT22;1487;51.470;6.938;2024-03-02T02:30:31;9.00;99.90
2955;DHT22;1487;51.470;6.938;2024-03-02T02:32:59;9.10;99.90
2955;DHT22;1487;51.470;6.938;2024-03-02T02:35:26;9.00;99.90
2955;DHT22;1487;51.470;6.938;2024-03-02T02:37:55;9.10;99.90
2955;DHT22;1487;51.470;6.938;2024-03-02T02:40:25;9.10;99.90
2955;DHT22;1487;51.470;6.938;2024-03-02T02:42:54;9.10;99.90
2955;DHT22;1487;51.470;6.938;2024-03-02T02:45:21;9.10;99.90
2955;DHT22;1487;51.470;6.938;2024-03-02T02:47:48;9.10;99.90
2955;DHT22;1487;51.470;6.938;2024-03-02T02:50:17;9.10;99.90
2955;DHT22;1487;51.470;6.938;2024-03-02T02:52:45;9.10;99.90
2955;DHT22;1487;51.470;6.938;2024-03-02T02:55:13;9.10;99.90
2955;DHT22;1487;51.470;6.938;2024-03-02T02:57:43;9.20;99.90
2955;DHT22;1487;51.470;6.938;2024-03-02T03:00:12;9.20;99.90
2955;DHT22;1487;51.470;6.938;2024-03-02T03:02:40;9.20;99.90
2955;DHT22;1487;51.470;6.938;2024-03-02T03:05:10;9.20;99.90
2955;DHT22;1487;51.470;6.938;2024-03-02T03:07:39;9.20;99.90
2955;DHT22;1487;51.470;6.938;2024-03-02T03:10:07;9.30;99.90
2955;DHT22;1487;51.470;6.938;2024-03-02T03:12:34;9.30;99.90
2955;DHT22;1487;51.470;6.938;2024-03-02T03:15:04;9.30;99.90
2955;DHT22;1487;51.470;6.938;2024-03-02T03:17:32;9.30;99.90
2955;DHT22;1487;51.470;6.938;2024-03-02T03:19:59;9.20;99.90
2955;DHT22;1487;51.470;6.938;2024-03-02T03:22:30;9.20;99.90
2955;DHT22;1487;51.470;6.938;2024-03-02T03:24:57;9.20;99.90
2955;DHT22;1487;51.470;6.938;2024-03-02T03:27:25;9.20;99.90
2955;DHT22;1487;51.470;6.938;2024-03-02T03:29:53;9.20;99.90
2955;DHT22;1487;51.470;6.938;2024-03-02T03:32:21;9.20;99.90
2955;DHT22;1487;51.470;6.938;2024-03-02T03:34:48;9.20;99.90
2955;DHT22;1487;51.470;6.938;2024-03-02T03:37:16;9.20;99.90
2955;DHT22;1487;51.470;6.938;2024-03-02T03:39:45;9.20;99.90
2955;DHT22;1487;51.470;6.938;2024-03-02T03:42:11;9.20;99.90
2955;DHT22;1487;51.470;6.938;2024-03-02T03:44:38;9.20;99.90
2955;DHT22;1487;51.470;6.938;2024-03-02T03:47:08;9.20;99.90
2955;DHT22;1487;51.470;6.938;2024-03-02T03:49:37;9.20;99.90
2955;DHT22;1487;51.470;6.938;2024-03-02T03:52:04;9.10;99.90
2955;DHT22;1487;51.470;6.938;2024-03-02T03:54:32;9.10;99.90
2955;DHT22;1487;51.470;6.938;2024-03-02T03:56:58;9.00;99.90
2955;DHT22;1487;51.470;6.938;2024-03-02T03:59:25;9.00;99.90
2955;DHT22;1487;51.470;6.938;2024-03-02T04:01:54;9.00;99.90
2955;DHT22;1487;51.470;6.938;2024-03-02T04:04:22;9.00;99.90
2955;DHT22;1487;51.470;6.938;2024-03-02T04:06:50;9.00;99.90
2955;DHT22;1487;51.470;6.938;2024-03-02T04:09:17;9.00;99.90
2955;DHT22;1487;51.470;6.938;2024-03-02T04:11:45;8.90;99.90
2955;DHT22;1487;51.470;6.938;2024-03-02T04:14:12;8.90;99.90
2955;DHT22;1487;51.470;6.938;2024-03-02T04:16:39;8.80;99.90
2955;DHT22;1487;51.470;6.938;2024-03-02T04:19:05;8.70;99.90
2955;DHT22;1487;51.470;6.938;2024-03-02T04:21:32;8.60;99.90
2955;DHT22;1487;51.470;6.938;2024-03-02T04:24:05;8.50;99.90
2955;DHT22;1487;51.470;6.938;2024-03-02T04:26:33;8.50;99.90
2955;DHT22;1487;51.470;6.938;2024-03-02T04:29:03;8.40;99.90
2955;DHT22;1487;51.470;6.938;2024-03-02T04:31:29;8.30;99.90
2955;DHT22;1487;51.470;6.938;2024-03-02T04:33:56;8.30;99.90
2955;DHT22;1487;51.470;6.938;2024-03-02T04:36:23;8.30;99.90
2955;DHT22;1487;51.470;6.938;2024-03-02T04:38:50;8.30;99.90
2955;DHT22;1487;51.470;6.938;2024-03-02T04:41:18;8.20;99.90
2955;DHT22;1487;51.470;6.938;2024-03-02T04:43:45;8.20;99.90
2955;DHT22;1487;51.470;6.938;2024-03-02T04:46:12;8.10;99.90
2955;DHT22;1487;51.470;6.938;2024-03-02T04:48:40;8.00;99.90
2955;DHT22;1487;51.470;6.938;2024-03-02T04:51:08;8.00;99.90
2955;DHT22;1487;51.470;6.938;2024-03-02T04:53:36;7.90;99.90
2955;DHT22;1487;51.470;6.938;2024-03-02T04:56:04;7.90;99.90
2955;DHT22;1487;51.470;6.938;2024-03-02T04:59:05;7.90;99.90
2955;DHT22;1487;51.470;6.938;2024-03-02T05:01:33;7.90;99.90
2955;DHT22;1487;51.470;6.938;2024-03-02T05:04:00;7.90;99.90
2955;DHT22;1487;51.470;6.938;2024-03-02T05:06:26;7.90;99.90
2955;DHT22;1487;51.470;6.938;2024-03-02T05:08:57;7.90;99.90
2955;DHT22;1487;51.470;6.938;2024-03-02T05:11:23;7.80;99.90
2955;DHT22;1487;51.470;6.938;2024-03-02T05:14:09;7.70;99.90
2955;DHT22;1487;51.470;6.938;2024-03-02T05:16:36;7.70;99.90
2955;DHT22;1487;51.470;6.938;2024-03-02T05:19:04;7.60;99.90
2955;DHT22;1487;51.470;6.938;2024-03-02T05:21:32;7.60;99.90
2955;DHT22;1487;51.470;6.938;2024-03-02T05:23:59;7.60;99.90
2955;DHT22;1487;51.470;6.938;2024-03-02T05:26:26;7.50;99.90
2955;DHT22;1487;51.470;6.938;2024-03-02T05:28:53;7.50;99.90
2955;DHT22;1487;51.470;6.938;2024-03-02T05:31:22;7.50;99.90
2955;DHT22;1487;51.470;6.938;2024-03-02T05:33:49;7.60;99.90
2955;DHT22;1487;51.470;6.938;2024-03-02T05:36:17;7.50;99.90
2955;DHT22;1487;51.470;6.938;2024-03-02T05:38:46;7.50;99.90
2955;DHT22;1487;51.470;6.938;2024-03-02T05:41:12;7.50;99.90
2955;DHT22;1487;51.470;6.938;2024-03-02T05:43:40;7.50;99.90
2955;DHT22;1487;51.470;6.938;2024-03-02T05:46:07;7.50;99.90
2955;DHT22;1487;51.470;6.938;2024-03-02T05:48:35;7.40;99.90
2955;DHT22;1487;51.470;6.938;2024-03-02T05:51:02;7.40;99.90
2955;DHT22;1487;51.470;6.938;2024-03-02T05:53:29;7.40;99.90
2955;DHT22;1487;51.470;6.938;2024-03-02T05:55:56;7.40;99.90
2955;DHT22;1487;51.470;6.938;2024-03-02T05:58:23;7.30;99.90
2955;DHT22;1487;51.470;6.938;2024-03-02T06:01:04;7.30;99.90
2955;DHT22;1487;51.470;6.938;2024-03-02T06:03:32;7.30;99.90
2955;DHT22;1487;51.470;6.938;2024-03-02T06:06:00;7.20;99.90
2955;DHT22;1487;51.470;6.938;2024-03-02T06:08:27;7.20;99.90
2955;DHT22;1487;51.470;6.938;2024-03-02T06:10:57;7.10;99.90
2955;DHT22;1487;51.470;6.938;2024-03-02T06:13:23;7.00;99.90
2955;DHT22;1487;51.470;6.938;2024-03-02T06:15:51;7.00;99.90
2955;DHT22;1487;51.470;6.938;2024-03-02T06:18:18;7.10;99.90
2955;DHT22;1487;51.470;6.938;2024-03-02T06:20:44;7.10;99.90
2955;DHT22;1487;51.470;6.938;2024-03-02T06:23:12;7.10;99.90
2955;DHT22;1487;51.470;6.938;2024-03-02T06:25:39;7.10;99.90
2955;DHT22;1487;51.470;6.938;2024-03-02T06:28:06;7.10;99.90
2955;DHT22;1487;51.470;6.938;2024-03-02T06:30:34;7.10;99.90
2955;DHT22;1487;51.470;6.938;2024-03-02T06:33:01;7.10;99.90
2955;DHT22;1487;51.470;6.938;2024-03-02T06:35:30;7.10;99.90
2955;DHT22;1487;51.470;6.938;2024-03-02T06:37:57;7.00;99.90
2955;DHT22;1487;51.470;6.938;2024-03-02T06:40:25;7.00;99.90
2955;DHT22;1487;51.470;6.938;2024-03-02T06:42:52;7.00;99.90
2955;DHT22;1487;51.470;6.938;2024-03-02T06:45:19;7.00;99.90
2955;DHT22;1487;51.470;6.938;2024-03-02T06:47:47;7.00;99.90
2955;DHT22;1487;51.470;6.938;2024-03-02T06:50:14;7.00;99.90
2955;DHT22;1487;51.470;6.938;2024-03-02T06:52:40;7.00;99.90
2955;DHT22;1487;51.470;6.938;2024-03-02T06:55:07;7.00;99.90
2955;DHT22;1487;51.470;6.938;2024-03-02T06:57:35;7.00;99.90
2955;DHT22;1487;51.470;6.938;2024-03-02T07:00:07;7.00;99.90
2955;DHT22;1487;51.470;6.938;2024-03-02T07:02:35;7.00;99.90
2955;DHT22;1487;51.470;6.938;2024-03-02T07:05:07;7.00;99.90
2955;DHT22;1487;51.470;6.938;2024-03-02T07:07:35;7.10;99.90
2955;DHT22;1487;51.470;6.938;2024-03-02T07:10:05;7.20;99.90
2955;DHT22;1487;51.470;6.938;2024-03-02T07:12:32;7.20;99.90
2955;DHT22;1487;51.470;6.938;2024-03-02T07:15:04;7.40;99.90
2955;DHT22;1487;51.470;6.938;2024-03-02T07:17:49;7.40;99.90
2955;DHT22;1487;51.470;6.938;2024-03-02T07:20:16;7.60;99.90
2955;DHT22;1487;51.470;6.938;2024-03-02T07:22:43;7.70;99.90
2955;DHT22;1487;51.470;6.938;2024-03-02T07:25:10;7.90;99.90
2955;DHT22;1487;51.470;6.938;2024-03-02T07:27:36;7.90;99.90
2955;DHT22;1487;51.470;6.938;2024-03-02T07:30:06;8.00;99.90
2955;DHT22;1487;51.470;6.938;2024-03-02T07:32:33;8.10;99.90
2955;DHT22;1487;51.470;6.938;2024-03-02T07:35:01;8.00;99.90
2955;DHT22;1487;51.470;6.938;2024-03-02T07:37:29;8.00;99.90
2955;DHT22;1487;51.470;6.938;2024-03-02T07:39:56;8.00;99.90
2955;DHT22;1487;51.470;6.938;2024-03-02T07:42:23;8.10;99.90
2955;DHT22;1487;51.470;6.938;2024-03-02T07:44:50;8.10;99.90
2955;DHT22;1487;51.470;6.938;2024-03-02T07:47:20;8.20;99.90
2955;DHT22;1487;51.470;6.938;2024-03-02T07:49:46;8.20;99.90
2955;DHT22;1487;51.470;6.938;2024-03-02T07:52:13;8.30;99.90
2955;DHT22;1487;51.470;6.938;2024-03-02T07:54:40;8.30;99.90
2955;DHT22;1487;51.470;6.938;2024-03-02T07:57:08;8.60;99.90
2955;DHT22;1487;51.470;6.938;2024-03-02T07:59:36;8.90;99.90
2955;DHT22;1487;51.470;6.938;2024-03-02T08:02:03;9.10;99.90
2955;DHT22;1487;51.470;6.938;2024-03-02T08:04:33;9.30;99.90
2955;DHT22;1487;51.470;6.938;2024-03-02T08:07:01;9.60;99.90
2955;DHT22;1487;51.470;6.938;2024-03-02T08:09:30;9.80;99.90
2955;DHT22;1487;51.470;6.938;2024-03-02T08:11:59;10.30;99.90
2955;DHT22;1487;51.470;6.938;2024-03-02T08:14:26;10.70;99.90
2955;DHT22;1487;51.470;6.938;2024-03-02T08:16:53;11.20;99.90
2955;DHT22;1487;51.470;6.938;2024-03-02T08:19:20;12.00;99.90
2955;DHT22;1487;51.470;6.938;2024-03-02T08:21:48;12.30;99.90
2955;DHT22;1487;51.470;6.938;2024-03-02T08:24:15;13.20;99.90
2955;DHT22;1487;51.470;6.938;2024-03-02T08:26:42;13.80;99.90
2955;DHT22;1487;51.470;6.938;2024-03-02T08:29:10;13.90;99.90
2955;DHT22;1487;51.470;6.938;2024-03-02T08:31:38;14.60;99.90
2955;DHT22;1487;51.470;6.938;2024-03-02T08:34:05;13.80;99.90
2955;DHT22;1487;51.470;6.938;2024-03-02T08:36:32;14.10;99.90
2955;DHT22;1487;51.470;6.938;2024-03-02T08:39:00;14.30;99.90
2955;DHT22;1487;51.470;6.938;2024-03-02T08:41:27;14.90;99.90
2955;DHT22;1487;51.470;6.938;2024-03-02T08:43:55;15.10;99.90
2955;DHT22;1487;51.470;6.938;2024-03-02T08:46:22;15.60;99.90
2955;DHT22;1487;51.470;6.938;2024-03-02T08:48:49;15.60;99.90
2955;DHT22;1487;51.470;6.938;2024-03-02T08:51:17;15.50;99.90
2955;DHT22;1487;51.470;6.938;2024-03-02T08:53:46;15.80;99.90
2955;DHT22;1487;51.470;6.938;2024-03-02T08:56:14;15.50;99.90
2955;DHT22;1487;51.470;6.938;2024-03-02T08:58:41;14.40;99.90
2955;DHT22;1487;51.470;6.938;2024-03-02T09:01:09;14.20;99.90
2955;DHT22;1487;51.470;6.938;2024-03-02T09:03:45;15.10;99.90
2955;DHT22;1487;51.470;6.938;2024-03-02T09:06:15;15.40;99.90
2955;DHT22;1487;51.470;6.938;2024-03-02T09:08:44;15.30;99.90
2955;DHT22;1487;51.470;6.938;2024-03-02T09:11:11;16.10;99.90
2955;DHT22;1487;51.470;6.938;2024-03-02T09:13:40;16.60;99.90
2955;DHT22;1487;51.470;6.938;2024-03-02T09:16:08;17.10;99.90
2955;DHT22;1487;51.470;6.938;2024-03-02T09:18:36;17.10;99.20
2955;DHT22;1487;51.470;6.938;2024-03-02T09:21:04;15.70;99.90
2955;DHT22;1487;51.470;6.938;2024-03-02T09:23:32;15.10;99.90
2955;DHT22;1487;51.470;6.938;2024-03-02T09:25:59;15.00;99.90
2955;DHT22;1487;51.470;6.938;2024-03-02T09:28:26;15.10;99.90
2955;DHT22;1487;51.470;6.938;2024-03-02T09:30:54;15.50;99.90
2955;DHT22;1487;51.470;6.938;2024-03-02T09:33:20;15.40;99.90
2955;DHT22;1487;51.470;6.938;2024-03-02T09:35:52;15.50;99.90
2955;DHT22;1487;51.470;6.938;2024-03-02T09:38:20;15.30;99.90
2955;DHT22;1487;51.470;6.938;2024-03-02T09:40:47;15.40;99.90
2955;DHT22;1487;51.470;6.938;2024-03-02T09:43:15;15.40;99.90
2955;DHT22;1487;51.470;6.938;2024-03-02T09:45:42;15.50;99.90
2955;DHT22;1487;51.470;6.938;2024-03-02T09:48:12;15.60;99.90
2955;DHT22;1487;51.470;6.938;2024-03-02T09:50:38;15.80;99.90
2955;DHT22;1487;51.470;6.938;2024-03-02T09:53:08;16.00;99.90
2955;DHT22;1487;51.470;6.938;2024-03-02T09:55:39;16.50;99.90
2955;DHT22;1487;51.470;6.938;2024-03-02T09:58:09;16.10;98.50
2955;DHT22;1487;51.470;6.938;2024-03-02T10:00:38;16.30;99.90
2955;DHT22;1487;51.470;6.938;2024-03-02T10:03:05;15.80;99.70
2955;DHT22;1487;51.470;6.938;2024-03-02T10:05:33;16.20;99.10
2955;DHT22;1487;51.470;6.938;2024-03-02T10:08:01;16.00;99.40
2955;DHT22;1487;51.470;6.938;2024-03-02T10:10:38;15.60;98.20
2955;DHT22;1487;51.470;6.938;2024-03-02T10:13:08;15.90;99.50
2955;DHT22;1487;51.470;6.938;2024-03-02T10:15:35;16.30;99.90
2955;DHT22;1487;51.470;6.938;2024-03-02T10:18:03;16.20;98.10
2955;DHT22;1487;51.470;6.938;2024-03-02T10:20:30;16.40;98.40
2955;DHT22;1487;51.470;6.938;2024-03-02T10:23:10;16.30;97.50
2955;DHT22;1487;51.470;6.938;2024-03-02T10:25:37;15.50;96.90
2955;DHT22;1487;51.470;6.938;2024-03-02T10:28:05;15.00;97.50
2955;DHT22;1487;51.470;6.938;2024-03-02T10:30:32;14.90;98.20
2955;DHT22;1487;51.470;6.938;2024-03-02T10:33:00;14.90;98.60
2955;DHT22;1487;51.470;6.938;2024-03-02T10:35:28;15.40;98.70
2955;DHT22;1487;51.470;6.938;2024-03-02T10:37:59;15.30;97.90
2955;DHT22;1487;51.470;6.938;2024-03-02T10:40:28;15.60;98.90
2955;DHT22;1487;51.470;6.938;2024-03-02T10:42:55;16.00;98.20
2955;DHT22;1487;51.470;6.938;2024-03-02T10:45:23;16.60;98.10
2955;DHT22;1487;51.470;6.938;2024-03-02T10:47:50;17.10;96.50
2955;DHT22;1487;51.470;6.938;2024-03-02T10:50:17;16.80;95.90
2955;DHT22;1487;51.470;6.938;2024-03-02T10:52:47;17.60;96.20
2955;DHT22;1487;51.470;6.938;2024-03-02T10:55:15;17.50;94.30
2955;DHT22;1487;51.470;6.938;2024-03-02T10:57:45;17.40;93.70
2955;DHT22;1487;51.470;6.938;2024-03-02T11:00:14;17.40;93.50
2955;DHT22;1487;51.470;6.938;2024-03-02T11:02:50;17.70;93.20
2955;DHT22;1487;51.470;6.938;2024-03-02T11:05:26;18.10;92.40
2955;DHT22;1487;51.470;6.938;2024-03-02T11:08:00;17.90;92.50
2955;DHT22;1487;51.470;6.938;2024-03-02T11:10:34;17.70;92.50
2955;DHT22;1487;51.470;6.938;2024-03-02T11:13:04;17.50;92.40
2955;DHT22;1487;51.470;6.938;2024-03-02T11:15:34;18.00;92.20
2955;DHT22;1487;51.470;6.938;2024-03-02T11:18:04;18.60;91.20
2955;DHT22;1487;51.470;6.938;2024-03-02T11:20:37;19.00;89.60
2955;DHT22;1487;51.470;6.938;2024-03-02T11:23:07;18.70;88.50
2955;DHT22;1487;51.470;6.938;2024-03-02T11:25:37;18.70;87.80
2955;DHT22;1487;51.470;6.938;2024-03-02T11:28:06;18.40;86.60
2955;DHT22;1487;51.470;6.938;2024-03-02T11:30:51;19.00;86.50
2955;DHT22;1487;51.470;6.938;2024-03-02T11:33:26;18.70;86.20
2955;DHT22;1487;51.470;6.938;2024-03-02T11:35:57;18.80;83.80
2955;DHT22;1487;51.470;6.938;2024-03-02T11:38:34;18.50;85.30
2955;DHT22;1487;51.470;6.938;2024-03-02T11:41:06;18.70;84.20
2955;DHT22;1487;51.470;6.938;2024-03-02T11:43:37;18.80;87.40
2955;DHT22;1487;51.470;6.938;2024-03-02T11:46:05;19.20;83.30
2955;DHT22;1487;51.470;6.938;2024-03-02T11:48:35;19.60;83.30
2955;DHT22;1487;51.470;6.938;2024-03-02T11:51:03;19.40;82.70
2955;DHT22;1487;51.470;6.938;2024-03-02T11:53:30;18.60;82.70
2955;DHT22;1487;51.470;6.938;2024-03-02T11:55:58;18.00;84.50
2955;DHT22;1487;51.470;6.938;2024-03-02T11:58:28;17.90;87.20
2955;DHT22;1487;51.470;6.938;2024-03-02T12:00:58;18.40;84.60
2955;DHT22;1487;51.470;6.938;2024-03-02T12:03:25;18.40;83.60
2955;DHT22;1487;51.470;6.938;2024-03-02T12:05:54;18.30;83.60
2955;DHT22;1487;51.470;6.938;2024-03-02T12:08:22;17.70;84.20
2955;DHT22;1487;51.470;6.938;2024-03-02T12:10:57;18.30;85.10
2955;DHT22;1487;51.470;6.938;2024-03-02T12:13:24;18.10;85.00
2955;DHT22;1487;51.470;6.938;2024-03-02T12:15:56;18.50;85.30
2955;DHT22;1487;51.470;6.938;2024-03-02T12:18:23;18.70;80.60
2955;DHT22;1487;51.470;6.938;2024-03-02T12:20:53;18.40;82.20
2955;DHT22;1487;51.470;6.938;2024-03-02T12:23:22;18.00;81.70
2955;DHT22;1487;51.470;6.938;2024-03-02T12:25:49;18.10;82.10
2955;DHT22;1487;51.470;6.938;2024-03-02T12:28:16;17.70;82.20
2955;DHT22;1487;51.470;6.938;2024-03-02T12:30:46;16.80;83.70
2955;DHT22;1487;51.470;6.938;2024-03-02T12:33:15;16.60;85.40
2955;DHT22;1487;51.470;6.938;2024-03-02T12:35:46;16.50;86.90
2955;DHT22;1487;51.470;6.938;2024-03-02T12:38:13;16.30;87.40
2955;DHT22;1487;51.470;6.938;2024-03-02T12:40:40;15.70;87.90
2955;DHT22;1487;51.470;6.938;2024-03-02T12:43:07;15.50;90.30
2955;DHT22;1487;51.470;6.938;2024-03-02T12:45:34;15.30;91.50
2955;DHT22;1487;51.470;6.938;2024-03-02T12:48:01;15.00;91.10
2955;DHT22;1487;51.470;6.938;2024-03-02T12:50:32;15.00;91.80
2955;DHT22;1487;51.470;6.938;2024-03-02T12:52:59;15.00;90.80
2955;DHT22;1487;51.470;6.938;2024-03-02T12:55:26;15.00;91.60
2955;DHT22;1487;51.470;6.938;2024-03-02T12:57:55;15.10;90.80
2955;DHT22;1487;51.470;6.938;2024-03-02T13:00:24;15.10;91.40
2955;DHT22;1487;51.470;6.938;2024-03-02T13:02:53;15.40;92.20
2955;DHT22;1487;51.470;6.938;2024-03-02T13:05:31;15.40;91.50
2955;DHT22;1487;51.470;6.938;2024-03-02T13:07:58;15.40;91.70
2955;DHT22;1487;51.470;6.938;2024-03-02T13:10:29;15.20;92.40
2955;DHT22;1487;51.470;6.938;2024-03-02T13:12:57;15.10;93.10
2955;DHT22;1487;51.470;6.938;2024-03-02T13:15:25;15.00;93.70
2955;DHT22;1487;51.470;6.938;2024-03-02T13:17:52;15.00;94.00
2955;DHT22;1487;51.470;6.938;2024-03-02T13:20:19;14.80;94.10
2955;DHT22;1487;51.470;6.938;2024-03-02T13:22:47;14.70;95.60
2955;DHT22;1487;51.470;6.938;2024-03-02T13:25:14;14.90;95.00
2955;DHT22;1487;51.470;6.938;2024-03-02T13:27:40;14.60;95.20
2955;DHT22;1487;51.470;6.938;2024-03-02T13:30:08;14.50;96.70
2955;DHT22;1487;51.470;6.938;2024-03-02T13:32:35;14.30;97.30
2955;DHT22;1487;51.470;6.938;2024-03-02T13:35:01;14.30;97.30
2955;DHT22;1487;51.470;6.938;2024-03-02T13:37:28;14.10;96.40
2955;DHT22;1487;51.470;6.938;2024-03-02T13:39:58;14.00;97.20
2955;DHT22;1487;51.470;6.938;2024-03-02T13:42:24;13.80;98.00
2955;DHT22;1487;51.470;6.938;2024-03-02T13:44:51;13.90;98.50
2955;DHT22;1487;51.470;6.938;2024-03-02T13:47:18;13.90;98.10
2955;DHT22;1487;51.470;6.938;2024-03-02T13:49:46;14.00;98.60
2955;DHT22;1487;51.470;6.938;2024-03-02T13:52:15;13.90;98.20
2955;DHT22;1487;51.470;6.938;2024-03-02T13:54:43;13.90;98.40
2955;DHT22;1487;51.470;6.938;2024-03-02T13:57:12;14.00;98.60
2955;DHT22;1487;51.470;6.938;2024-03-02T13:59:40;14.10;98.70
2955;DHT22;1487;51.470;6.938;2024-03-02T14:02:08;14.10;98.70
2955;DHT22;1487;51.470;6.938;2024-03-02T14:04:36;14.10;98.50
2955;DHT22;1487;51.470;6.938;2024-03-02T14:07:04;14.10;98.90
2955;DHT22;1487;51.470;6.938;2024-03-02T14:09:32;14.10;99.40
2955;DHT22;1487;51.470;6.938;2024-03-02T14:11:59;14.70;99.70
2955;DHT22;1487;51.470;6.938;2024-03-02T14:14:27;15.00;98.20
2955;DHT22;1487;51.470;6.938;2024-03-02T14:16:54;14.60;97.40
2955;DHT22;1487;51.470;6.938;2024-03-02T14:19:27;14.20;98.10
2955;DHT22;1487;51.470;6.938;2024-03-02T14:21:54;14.10;98.40
2955;DHT22;1487;51.470;6.938;2024-03-02T14:24:21;14.10;99.10
2955;DHT22;1487;51.470;6.938;2024-03-02T14:26:51;14.00;98.90
2955;DHT22;1487;51.470;6.938;2024-03-02T14:29:17;13.90;99.30
2955;DHT22;1487;51.470;6.938;2024-03-02T14:31:48;14.10;99.90
2955;DHT22;1487;51.470;6.938;2024-03-02T14:34:15;14.50;99.80
2955;DHT22;1487;51.470;6.938;2024-03-02T14:36:42;15.00;98.80
2955;DHT22;1487;51.470;6.938;2024-03-02T14:39:11;15.00;97.40
2955;DHT22;1487;51.470;6.938;2024-03-02T14:41:39;14.90;98.00
2955;DHT22;1487;51.470;6.938;2024-03-02T14:44:06;15.00;97.40
2955;DHT22;1487;51.470;6.938;2024-03-02T14:46:33;15.40;97.10
2955;DHT22;1487;51.470;6.938;2024-03-02T14:49:02;15.10;97.00
2955;DHT22;1487;51.470;6.938;2024-03-02T14:51:29;15.30;97.40
2955;DHT22;1487;51.470;6.938;2024-03-02T14:53:58;15.40;97.10
2955;DHT22;1487;51.470;6.938;2024-03-02T14:56:25;15.10;97.30
2955;DHT22;1487;51.470;6.938;2024-03-02T14:58:51;15.00;97.20
2955;DHT22;1487;51.470;6.938;2024-03-02T15:01:20;15.20;97.30
2955;DHT22;1487;51.470;6.938;2024-03-02T15:03:48;15.00;96.60
2955;DHT22;1487;51.470;6.938;2024-03-02T15:06:17;14.90;97.20
2955;DHT22;1487;51.470;6.938;2024-03-02T15:08:44;14.80;97.90
2955;DHT22;1487;51.470;6.938;2024-03-02T15:11:12;14.60;97.60
2955;DHT22;1487;51.470;6.938;2024-03-02T15:13:39;14.30;98.40
2955;DHT22;1487;51.470;6.938;2024-03-02T15:16:07;14.20;98.60
2955;DHT22;1487;51.470;6.938;2024-03-02T15:18:34;14.40;98.80
2955;DHT22;1487;51.470;6.938;2024-03-02T15:21:01;14.50;98.30
2955;DHT22;1487;51.470;6.938;2024-03-02T15:23:33;14.40;98.10
2955;DHT22;1487;51.470;6.938;2024-03-02T15:26:00;14.70;97.90
2955;DHT22;1487;51.470;6.938;2024-03-02T15:28:27;14.90;97.90
2955;DHT22;1487;51.470;6.938;2024-03-02T15:30:54;14.70;97.90
2955;DHT22;1487;51.470;6.938;2024-03-02T15:33:21;14.40;98.10
2955;DHT22;1487;51.470;6.938;2024-03-02T15:35:50;14.20;99.00
2955;DHT22;1487;51.470;6.938;2024-03-02T15:38:17;14.00;99.90
2955;DHT22;1487;51.470;6.938;2024-03-02T15:40:48;14.00;99.70
2955;DHT22;1487;51.470;6.938;2024-03-02T15:43:15;14.00;99.90
2955;DHT22;1487;51.470;6.938;2024-03-02T15:45:42;14.00;99.90
2955;DHT22;1487;51.470;6.938;2024-03-02T15:48:10;14.00;99.90
2955;DHT22;1487;51.470;6.938;2024-03-02T15:50:38;14.00;99.90
2955;DHT22;1487;51.470;6.938;2024-03-02T15:53:05;13.90;99.90
2955;DHT22;1487;51.470;6.938;2024-03-02T15:55:34;13.90;99.90
2955;DHT22;1487;51.470;6.938;2024-03-02T15:58:03;13.80;99.90
2955;DHT22;1487;51.470;6.938;2024-03-02T16:00:32;13.80;99.90
2955;DHT22;1487;51.470;6.938;2024-03-02T16:03:01;13.70;99.90
2955;DHT22;1487;51.470;6.938;2024-03-02T16:05:28;13.80;99.90
2955;DHT22;1487;51.470;6.938;2024-03-02T16:07:57;13.90;99.90
2955;DHT22;1487;51.470;6.938;2024-03-02T16:10:26;13.90;99.90
2955;DHT22;1487;51.470;6.938;2024-03-02T16:12:54;13.80;99.90
2955;DHT22;1487;51.470;6.938;2024-03-02T16:15:26;13.80;99.90
2955;DHT22;1487;51.470;6.938;2024-03-02T16:17:53;13.80;99.90